Time;durP1;ratioP1;P1;durP2;ratioP2;P2;SDS_P1;SDS_P2;PMS_P1;PMS_P2;Temp;Humidity;BMP_temperature;BMP_pressure;BME280_temperature;BME280_humidity;BME280_pressure;Samples;Min_cycle;Max_cycle;Signal;HPM_P1;HPM_P2
2023/09/05 00:00:10;;;;;;;9.25;6.75;;;18.80;99.90;;;;;;4989758;28;20038;-90
2023/09/05 00:02:40;;;;;;;7.57;6.93;;;18.50;99.90;;;;;;4977189;28;20018;-89
2023/09/05 00:05:07;;;;;;;9.65;6.88;;;18.50;99.90;;;;;;4978079;28;20387;-88
2023/09/05 00:07:37;;;;;;;7.72;6.97;;;18.40;99.90;;;;;;4979037;28;20049;-89
2023/09/05 00:10:07;;;;;;;9.40;7.25;;;18.40;99.90;;;;;;4974222;28;20050;-89
2023/09/05 00:12:34;;;;;;;7.95;6.65;;;18.40;99.90;;;;;;4977087;28;20414;-88
2023/09/05 00:14:59;;;;;;;10.65;6.53;;;18.20;99.90;;;;;;4977482;28;20033;-89
2023/09/05 00:17:25;;;;;;;8.40;7.60;;;18.30;99.90;;;;;;4983989;28;20026;-89
2023/09/05 00:19:51;;;;;;;7.75;6.97;;;18.40;99.90;;;;;;5003797;28;20525;-89
2023/09/05 00:22:18;;;;;;;7.53;6.82;;;18.30;99.90;;;;;;5004890;28;20034;-88
2023/09/05 00:24:44;;;;;;;8.07;6.63;;;18.30;99.90;;;;;;4994987;28;20031;-91
2023/09/05 00:27:10;;;;;;;7.70;7.00;;;18.30;99.90;;;;;;4981917;28;20046;-90
2023/09/05 00:29:36;;;;;;;7.50;6.80;;;18.40;99.90;;;;;;4977355;28;20022;-91
2023/09/05 00:32:03;;;;;;;6.65;6.15;;;18.40;99.90;;;;;;4977599;28;20031;-90
2023/09/05 00:34:30;;;;;;;10.90;6.20;;;18.40;99.90;;;;;;4999104;28;20031;-89
2023/09/05 00:36:58;;;;;;;6.80;6.30;;;18.30;99.90;;;;;;4996707;28;20041;-90
2023/09/05 00:39:25;;;;;;;8.00;6.53;;;18.20;99.90;;;;;;5010885;28;20037;-90
2023/09/05 00:41:50;;;;;;;6.15;5.65;;;18.20;99.90;;;;;;5015861;28;20054;-89
2023/09/05 00:44:17;;;;;;;11.00;6.95;;;18.30;99.90;;;;;;5017183;28;20022;-89
2023/09/05 00:46:46;;;;;;;7.93;7.30;;;18.20;99.90;;;;;;5003641;28;20042;-89
2023/09/05 00:49:15;;;;;;;10.32;6.93;;;18.20;99.90;;;;;;4998231;28;20026;-89
2023/09/05 00:51:44;;;;;;;6.88;6.22;;;18.20;99.90;;;;;;4995900;28;20396;-89
2023/09/05 00:54:10;;;;;;;7.63;7.03;;;18.20;99.90;;;;;;4992019;28;20471;-90
2023/09/05 00:56:36;;;;;;;8.63;7.32;;;18.20;99.90;;;;;;4976254;28;20038;-90
2023/09/05 00:59:05;;;;;;;6.65;6.15;;;18.20;99.90;;;;;;4990917;28;20026;-90
2023/09/05 01:01:31;;;;;;;7.10;6.40;;;18.20;99.90;;;;;;4992237;28;20172;-90
2023/09/05 01:03:57;;;;;;;6.28;5.78;;;18.20;99.90;;;;;;4975989;28;20110;-89
2023/09/05 01:06:46;;;;;;;6.85;6.22;;;18.20;99.90;;;;;;4996611;28;20042;-89
2023/09/05 01:09:15;;;;;;;7.18;6.57;;;18.20;99.90;;;;;;4995591;28;20034;-89
2023/09/05 01:11:41;;;;;;;6.65;6.05;;;18.20;99.90;;;;;;4987675;28;20512;-91
2023/09/05 01:14:07;;;;;;;6.85;6.28;;;18.30;99.90;;;;;;4995049;28;20372;-90
2023/09/05 01:16:32;;;;;;;6.30;5.80;;;18.30;99.90;;;;;;4981473;28;20078;-90
2023/09/05 01:19:01;;;;;;;6.68;6.18;;;18.30;99.90;;;;;;4976550;28;20383;-90
2023/09/05 01:21:31;;;;;;;8.15;6.15;;;18.30;99.90;;;;;;4991864;28;20022;-89
2023/09/05 01:24:16;;;;;;;8.60;7.07;;;18.30;99.90;;;;;;4987623;28;20086;-89
2023/09/05 01:26:43;;;;;;;7.32;6.25;;;18.20;99.90;;;;;;5007030;28;20026;-89
2023/09/05 01:29:11;;;;;;;7.28;6.18;;;18.50;99.90;;;;;;4979550;28;20033;-89
2023/09/05 01:31:38;;;;;;;6.32;5.82;;;18.20;99.90;;;;;;4977179;28;20054;-89
2023/09/05 01:34:03;;;;;;;6.50;5.60;;;18.20;99.90;;;;;;4981624;28;20077;-89
2023/09/05 01:36:29;;;;;;;6.68;6.07;;;18.20;99.90;;;;;;4986157;28;20019;-90
2023/09/05 01:38:55;;;;;;;7.65;6.45;;;18.20;99.90;;;;;;4982735;28;20076;-90
2023/09/05 01:41:20;;;;;;;5.75;5.28;;;18.30;99.90;;;;;;4994788;28;20031;-90
2023/09/05 01:43:46;;;;;;;10.48;6.00;;;18.20;99.90;;;;;;4997828;28;20038;-90
2023/09/05 01:46:11;;;;;;;7.07;6.38;;;18.20;99.90;;;;;;5011405;28;20038;-89
2023/09/05 01:48:37;;;;;;;6.70;6.05;;;18.20;99.90;;;;;;4988195;28;20031;-90
2023/09/05 01:51:04;;;;;;;6.15;5.55;;;18.20;99.90;;;;;;4987318;28;20019;-90
2023/09/05 01:53:30;;;;;;;7.95;6.10;;;18.20;99.90;;;;;;4974615;28;20031;-90
2023/09/05 01:55:57;;;;;;;11.93;6.22;;;18.20;99.90;;;;;;4995857;28;20042;-90
2023/09/05 01:58:23;;;;;;;6.93;5.78;;;18.20;99.90;;;;;;4994846;28;20443;-89
2023/09/05 02:00:49;;;;;;;6.25;5.00;;;18.30;99.90;;;;;;4996898;28;20114;-90
2023/09/05 02:03:15;;;;;;;6.38;5.15;;;18.30;99.90;;;;;;4988367;28;20024;-90
2023/09/05 02:05:40;;;;;;;5.88;5.22;;;18.30;99.90;;;;;;4994749;28;20026;-89
2023/09/05 02:08:06;;;;;;;5.97;5.47;;;18.20;99.90;;;;;;4994851;28;20391;-89
2023/09/05 02:10:32;;;;;;;6.68;6.15;;;18.30;99.90;;;;;;5006342;28;20033;-89
2023/09/05 02:12:57;;;;;;;7.20;5.25;;;18.20;99.90;;;;;;5001812;28;20470;-89
2023/09/05 02:15:23;;;;;;;9.82;6.05;;;18.20;99.90;;;;;;4995524;28;20031;-88
2023/09/05 02:17:48;;;;;;;6.18;5.68;;;18.10;99.90;;;;;;4995688;28;20037;-90
2023/09/05 02:20:14;;;;;;;5.97;5.40;;;18.20;99.90;;;;;;4994212;28;20081;-91
2023/09/05 02:22:44;;;;;;;7.07;5.47;;;18.10;99.90;;;;;;4997996;28;20049;-89
2023/09/05 02:25:11;;;;;;;6.68;6.03;;;18.10;99.90;;;;;;4989990;28;20027;-90
2023/09/05 02:27:38;;;;;;;6.85;6.30;;;18.00;99.90;;;;;;4987747;28;20042;-89
2023/09/05 02:30:06;;;;;;;6.85;5.82;;;18.10;99.90;;;;;;5005364;28;20426;-89
2023/09/05 02:32:32;;;;;;;6.28;5.70;;;18.10;99.90;;;;;;4974913;28;20093;-89
2023/09/05 02:35:00;;;;;;;6.30;5.80;;;18.10;99.90;;;;;;4990249;28;20386;-88
2023/09/05 02:37:26;;;;;;;6.28;5.78;;;18.40;99.90;;;;;;5013245;28;20033;-89
2023/09/05 02:39:52;;;;;;;8.00;5.43;;;18.30;99.90;;;;;;4997811;28;20509;-90
2023/09/05 02:42:18;;;;;;;6.82;6.22;;;18.10;99.90;;;;;;4994303;28;20119;-90
2023/09/05 02:44:44;;;;;;;6.68;6.07;;;18.20;99.90;;;;;;4985397;28;20111;-89
2023/09/05 02:47:09;;;;;;;9.98;6.22;;;18.10;99.90;;;;;;4993298;28;20041;-89
2023/09/05 02:49:35;;;;;;;6.70;6.10;;;18.10;99.90;;;;;;4990246;28;20041;-89
2023/09/05 02:52:00;;;;;;;6.93;6.32;;;18.20;99.90;;;;;;4993502;28;20030;-90
2023/09/05 02:54:29;;;;;;;7.82;6.00;;;18.20;99.90;;;;;;4991908;28;20085;-89
2023/09/05 02:56:55;;;;;;;7.03;6.43;;;18.20;99.90;;;;;;4992977;28;20484;-89
2023/09/05 02:59:21;;;;;;;7.10;6.45;;;18.10;99.90;;;;;;4993584;28;20027;-89
2023/09/05 03:01:47;;;;;;;6.97;6.30;;;18.10;99.90;;;;;;4984758;28;20054;-89
2023/09/05 03:04:16;;;;;;;6.95;6.35;;;18.10;99.90;;;;;;4990013;28;20042;-88
2023/09/05 03:06:42;;;;;;;10.73;6.35;;;18.10;99.90;;;;;;4992999;28;20037;-89
2023/09/05 03:09:08;;;;;;;12.52;7.50;;;18.10;99.90;;;;;;4981109;28;20563;-89
2023/09/05 03:11:33;;;;;;;6.97;6.28;;;18.10;99.90;;;;;;4989596;28;20037;-89
2023/09/05 03:14:01;;;;;;;8.32;6.38;;;18.00;99.90;;;;;;4980243;28;20486;-89
2023/09/05 03:16:28;;;;;;;7.32;6.63;;;18.00;99.90;;;;;;4974382;28;20435;-89
2023/09/05 03:18:59;;;;;;;8.35;6.35;;;18.00;99.90;;;;;;4988038;28;20034;-90
2023/09/05 03:21:25;;;;;;;7.30;6.60;;;18.00;99.90;;;;;;4977600;28;20038;-90
2023/09/05 03:23:51;;;;;;;7.57;6.03;;;18.00;99.90;;;;;;4992747;28;20045;-88
2023/09/05 03:26:18;;;;;;;6.75;6.07;;;18.00;99.90;;;;;;4993023;28;20118;-89
2023/09/05 03:28:45;;;;;;;7.13;6.43;;;18.00;99.90;;;;;;4992899;28;20041;-88
2023/09/05 03:31:11;;;;;;;8.50;6.80;;;18.60;99.90;;;;;;5004660;28;20033;-89
2023/09/05 03:33:37;;;;;;;10.25;6.28;;;18.00;99.90;;;;;;4990141;28;20455;-89
2023/09/05 03:36:05;;;;;;;6.55;5.85;;;17.90;99.90;;;;;;5013772;28;20053;-88
2023/09/05 03:38:31;;;;;;;7.53;6.82;;;18.00;99.90;;;;;;5006330;28;20030;-89
2023/09/05 03:40:57;;;;;;;7.10;6.43;;;18.20;99.90;;;;;;5001690;28;20037;-88
2023/09/05 03:43:22;;;;;;;7.15;6.45;;;17.90;99.90;;;;;;4984520;28;20026;-89
2023/09/05 03:45:48;;;;;;;9.68;6.63;;;17.90;99.90;;;;;;4993387;28;20074;-89
2023/09/05 03:48:14;;;;;;;8.85;6.65;;;17.80;99.90;;;;;;4993450;28;20103;-90
2023/09/05 03:50:40;;;;;;;7.07;6.47;;;17.90;99.90;;;;;;4993196;28;20018;-90
2023/09/05 03:53:05;;;;;;;7.15;6.45;;;18.10;99.90;;;;;;4979583;28;20478;-90
2023/09/05 03:55:34;;;;;;;6.82;6.28;;;17.80;99.90;;;;;;4974317;28;20027;-91
2023/09/05 03:58:00;;;;;;;6.57;5.90;;;18.00;99.90;;;;;;4994303;28;20082;-90
2023/09/05 04:00:25;;;;;;;6.30;5.70;;;17.90;99.90;;;;;;4993218;28;20105;-89
2023/09/05 04:02:51;;;;;;;6.38;5.78;;;18.30;99.90;;;;;;4993118;28;20455;-89
2023/09/05 04:05:17;;;;;;;6.65;6.05;;;17.90;99.90;;;;;;4992975;28;20034;-89
2023/09/05 04:07:42;;;;;;;10.90;6.72;;;17.80;99.90;;;;;;4973452;28;20124;-89
2023/09/05 04:10:08;;;;;;;7.45;6.78;;;17.80;99.90;;;;;;4973309;28;20468;-89
2023/09/05 04:12:34;;;;;;;7.65;6.30;;;17.80;99.90;;;;;;4976439;28;20118;-89
2023/09/05 04:14:59;;;;;;;6.63;6.03;;;18.10;99.90;;;;;;4973150;28;20485;-89
2023/09/05 04:17:25;;;;;;;7.07;6.38;;;17.70;99.90;;;;;;4991625;28;20032;-89
2023/09/05 04:19:53;;;;;;;6.68;6.18;;;17.80;99.90;;;;;;5015731;28;20493;-90
2023/09/05 04:22:20;;;;;;;6.38;5.85;;;17.80;99.90;;;;;;5003025;28;20625;-89
2023/09/05 04:24:50;;;;;;;7.53;6.43;;;17.80;99.90;;;;;;4990391;28;20036;-90
2023/09/05 04:27:15;;;;;;;7.70;5.95;;;17.80;99.90;;;;;;4983472;28;20030;-89
2023/09/05 04:29:41;;;;;;;8.98;7.03;;;17.80;99.90;;;;;;4983288;28;20027;-89
2023/09/05 04:32:07;;;;;;;7.68;6.95;;;17.80;99.90;;;;;;4998866;28;20010;-88
2023/09/05 04:34:34;;;;;;;8.20;5.78;;;17.70;99.90;;;;;;5029082;28;20030;-89
2023/09/05 04:37:00;;;;;;;10.57;6.82;;;17.80;99.90;;;;;;5011396;28;20058;-89
2023/09/05 04:39:26;;;;;;;6.82;6.13;;;17.80;99.90;;;;;;4997155;28;20080;-88
2023/09/05 04:41:51;;;;;;;7.65;6.38;;;17.70;99.90;;;;;;4995865;28;20105;-88
2023/09/05 04:44:17;;;;;;;8.05;6.15;;;17.80;99.90;;;;;;4995507;28;20073;-88
2023/09/05 04:46:45;;;;;;;9.65;7.10;;;17.70;99.90;;;;;;4982259;28;20553;-89
2023/09/05 04:49:11;;;;;;;7.75;5.95;;;17.70;99.90;;;;;;4994197;28;20411;-88
2023/09/05 04:51:37;;;;;;;7.35;6.60;;;17.70;99.90;;;;;;4994504;28;20029;-88
2023/09/05 04:54:03;;;;;;;7.95;5.88;;;17.70;99.90;;;;;;4994535;28;20030;-89
2023/09/05 04:56:28;;;;;;;7.22;6.38;;;17.70;99.90;;;;;;4987598;28;20027;-88
2023/09/05 04:58:54;;;;;;;6.25;5.75;;;17.70;99.90;;;;;;5013517;28;20026;-88
2023/09/05 05:01:20;;;;;;;7.93;6.53;;;17.70;99.90;;;;;;4991690;28;20035;-88
2023/09/05 05:03:45;;;;;;;7.65;6.47;;;17.70;99.90;;;;;;4992976;28;20117;-88
2023/09/05 05:06:11;;;;;;;7.18;6.57;;;17.60;99.90;;;;;;4995274;28;20424;-89
2023/09/05 05:08:36;;;;;;;6.25;5.75;;;17.60;99.90;;;;;;4988018;28;20038;-89
2023/09/05 05:11:05;;;;;;;8.50;5.80;;;17.60;99.90;;;;;;4976023;28;20084;-89
2023/09/05 05:13:31;;;;;;;7.97;6.07;;;17.80;99.90;;;;;;4979784;28;20495;-88
2023/09/05 05:15:57;;;;;;;6.35;5.75;;;17.70;99.90;;;;;;4977706;28;20478;-89
2023/09/05 05:18:22;;;;;;;7.40;6.78;;;17.70;99.90;;;;;;4989555;28;20027;-89
2023/09/05 05:20:48;;;;;;;6.75;6.10;;;17.60;99.90;;;;;;4977680;28;20077;-87
2023/09/05 05:23:13;;;;;;;10.60;6.60;;;17.60;99.90;;;;;;4989639;28;20030;-89
2023/09/05 05:25:39;;;;;;;7.50;6.22;;;17.60;99.90;;;;;;4995399;28;20026;-88
2023/09/05 05:28:05;;;;;;;7.47;6.32;;;17.60;99.90;;;;;;4995569;28;20134;-88
2023/09/05 05:30:36;;;;;;;11.02;6.45;;;17.60;99.90;;;;;;4994245;28;20022;-88
2023/09/05 05:33:02;;;;;;;7.00;6.30;;;17.60;99.90;;;;;;4997868;28;20034;-90
2023/09/05 05:35:27;;;;;;;6.90;5.88;;;17.60;99.90;;;;;;5012189;28;20065;-88
2023/09/05 05:37:53;;;;;;;13.32;5.93;;;17.60;99.90;;;;;;4995843;28;20076;-88
2023/09/05 05:40:18;;;;;;;6.95;6.25;;;17.60;99.90;;;;;;4994633;28;20037;-89
2023/09/05 05:42:44;;;;;;;6.30;5.70;;;17.60;99.90;;;;;;4990897;28;20027;-90
2023/09/05 05:45:10;;;;;;;6.82;6.05;;;17.60;99.90;;;;;;4993141;28;20030;-89
2023/09/05 05:47:35;;;;;;;6.13;5.63;;;17.60;99.90;;;;;;4993173;28;20116;-89
2023/09/05 05:50:01;;;;;;;6.53;5.88;;;17.70;99.90;;;;;;4994692;28;20026;-88
2023/09/05 05:52:27;;;;;;;7.25;6.55;;;17.70;99.90;;;;;;4994916;28;20375;-89
2023/09/05 05:54:53;;;;;;;6.32;5.72;;;18.40;99.90;;;;;;4993791;28;20022;-88
2023/09/05 05:57:18;;;;;;;7.28;6.43;;;17.70;99.90;;;;;;4993142;28;20489;-88
2023/09/05 05:59:44;;;;;;;6.15;5.65;;;17.70;99.90;;;;;;4991894;28;20117;-88
2023/09/05 06:02:10;;;;;;;8.00;5.90;;;17.70;99.90;;;;;;4994625;28;20132;-88
2023/09/05 06:04:35;;;;;;;6.38;5.78;;;17.70;99.90;;;;;;4995065;28;20032;-89
2023/09/05 06:07:01;;;;;;;7.68;6.00;;;17.80;99.90;;;;;;4994966;28;20038;-89
2023/09/05 06:09:27;;;;;;;8.85;6.20;;;17.80;99.90;;;;;;4982700;28;20027;-87
2023/09/05 06:11:53;;;;;;;7.07;6.43;;;18.60;99.90;;;;;;4993736;28;20031;-87
2023/09/05 06:14:18;;;;;;;6.40;5.85;;;17.80;99.90;;;;;;4993455;28;20481;-93
2023/09/05 06:16:46;;;;;;;8.25;6.50;;;17.90;99.90;;;;;;4995355;28;20394;-89
2023/09/05 06:19:12;;;;;;;8.48;6.15;;;17.80;99.90;;;;;;4990277;28;20050;-90
2023/09/05 06:21:38;;;;;;;7.03;6.43;;;18.00;99.90;;;;;;4993499;28;20026;-89
2023/09/05 06:24:04;;;;;;;16.13;6.57;;;17.70;99.90;;;;;;4990982;28;20026;-90
2023/09/05 06:26:29;;;;;;;7.00;6.15;;;17.90;99.90;;;;;;4995400;28;20053;-90
2023/09/05 06:28:55;;;;;;;8.02;6.50;;;17.90;99.90;;;;;;4992806;23;20049;-90
2023/09/05 06:31:21;;;;;;;8.30;6.57;;;17.90;99.90;;;;;;4993554;28;20465;-89
2023/09/05 06:33:47;;;;;;;6.60;6.00;;;18.00;99.90;;;;;;4991519;28;20102;-89
2023/09/05 06:36:12;;;;;;;7.50;6.63;;;18.20;99.90;;;;;;4994539;28;20030;-89
2023/09/05 06:38:39;;;;;;;6.47;5.70;;;18.20;99.90;;;;;;5012802;28;20030;-90
2023/09/05 06:41:09;;;;;;;6.53;5.93;;;18.00;99.90;;;;;;4998730;28;20037;-90
2023/09/05 06:43:34;;;;;;;7.53;6.93;;;18.40;99.90;;;;;;4989396;28;20113;-90
2023/09/05 06:46:04;;;;;;;6.43;5.85;;;18.10;99.90;;;;;;4991943;28;20157;-89
2023/09/05 06:48:30;;;;;;;6.47;5.88;;;18.10;99.90;;;;;;4991717;28;20482;-90
2023/09/05 06:50:58;;;;;;;13.52;6.35;;;19.00;99.90;;;;;;4983247;28;20050;-88
2023/09/05 06:53:24;;;;;;;7.97;6.85;;;18.20;99.90;;;;;;4982524;28;20030;-88
2023/09/05 06:55:51;;;;;;;10.00;6.25;;;18.20;99.90;;;;;;4991479;28;20517;-88
2023/09/05 06:58:18;;;;;;;7.18;6.57;;;18.30;99.90;;;;;;4988685;28;20022;-88
2023/09/05 07:00:44;;;;;;;11.20;6.35;;;18.20;99.90;;;;;;4973738;28;20031;-88
2023/09/05 07:03:10;;;;;;;6.65;6.13;;;18.40;99.90;;;;;;4992555;28;20528;-89
2023/09/05 07:05:41;;;;;;;7.50;6.57;;;18.30;99.90;;;;;;4991836;28;20030;-89
2023/09/05 07:08:06;;;;;;;10.88;7.05;;;18.40;99.90;;;;;;4984201;28;20034;-88
2023/09/05 07:10:41;;;;;;;8.07;6.68;;;18.40;99.90;;;;;;4994905;28;20486;-93
2023/09/05 07:13:07;;;;;;;10.45;7.28;;;18.50;99.90;;;;;;4997099;28;20030;-90
2023/09/05 07:15:32;;;;;;;6.97;6.28;;;18.50;99.90;;;;;;4997107;28;20022;-93
2023/09/05 07:17:58;;;;;;;8.80;5.82;;;18.60;99.90;;;;;;4992298;28;20030;-92
2023/09/05 07:20:24;;;;;;;9.50;5.95;;;18.10;99.90;;;;;;4995235;28;20038;-91
2023/09/05 07:23:07;;;;;;;7.43;6.15;;;18.60;99.90;;;;;;4994560;28;20416;-90
2023/09/05 07:25:37;;;;;;;7.20;6.15;;;19.70;99.90;;;;;;5388629;23;20516;-95
2023/09/05 07:28:04;;;;;;;10.73;5.88;;;18.70;99.90;;;;;;5307169;23;20499;-90
2023/09/05 07:30:31;;;;;;;6.32;5.82;;;18.80;99.90;;;;;;4948883;29;20051;-93
2023/09/05 07:32:57;;;;;;;8.43;6.97;;;18.80;99.90;;;;;;4965913;28;20007;-93
2023/09/05 07:35:36;;;;;;;;;;;;;;;;;;;;;
2023/09/05 07:38:08;;;;;;;6.15;5.43;;;18.90;99.90;;;;;;4950129;29;20036;-95
2023/09/05 07:40:33;;;;;;;9.25;5.60;;;18.90;99.90;;;;;;4949648;29;20020;-93
2023/09/05 07:43:00;;;;;;;8.10;6.18;;;19.00;99.90;;;;;;4973480;28;20053;-90
2023/09/05 07:45:41;;;;;;;6.13;5.63;;;19.00;99.90;;;;;;4957655;29;20027;-87
2023/09/05 07:48:08;;;;;;;6.88;5.28;;;19.10;99.90;;;;;;4951728;29;20040;-87
2023/09/05 07:50:35;;;;;;;6.00;5.40;;;20.10;99.90;;;;;;4953420;28;20035;-90
2023/09/05 07:53:01;;;;;;;8.63;5.53;;;19.20;99.90;;;;;;4959586;29;20143;-88
2023/09/05 07:55:28;;;;;;;13.38;6.28;;;19.30;99.90;;;;;;4959238;29;20023;-90
2023/09/05 07:57:55;;;;;;;6.50;5.82;;;19.30;99.90;;;;;;4957848;29;20081;-91
2023/09/05 08:00:39;;;;;;;5.85;5.35;;;19.50;99.90;;;;;;4908678;29;20031;-90
2023/09/05 08:03:04;;;;;;;8.45;5.63;;;19.90;99.90;;;;;;4960342;29;20031;-94
2023/09/05 08:05:33;;;;;;;6.78;5.78;;;19.90;99.90;;;;;;4958294;29;20093;-90
2023/09/05 08:07:59;;;;;;;5.65;5.15;;;19.50;99.90;;;;;;4957952;29;20079;-89
2023/09/05 08:10:39;;;;;;;7.60;6.85;;;19.50;99.90;;;;;;4956144;29;20061;-89
2023/09/05 08:13:12;;;;;;;6.43;5.90;;;19.60;99.90;;;;;;4956112;29;20368;-90
2023/09/05 08:15:43;;;;;;;5.80;5.30;;;19.60;99.90;;;;;;4957188;29;20031;-90
2023/09/05 08:18:12;;;;;;;7.15;5.40;;;19.70;99.90;;;;;;4957087;29;20176;-90
2023/09/05 08:20:39;;;;;;;14.30;6.30;;;19.70;99.90;;;;;;4957724;29;20027;-90
2023/09/05 08:23:07;;;;;;;6.75;5.40;;;19.80;99.90;;;;;;4956970;29;20114;-90
2023/09/05 08:25:33;;;;;;;6.72;5.07;;;19.80;99.90;;;;;;4957787;29;20027;-91
2023/09/05 08:27:58;;;;;;;13.45;4.93;;;19.90;99.90;;;;;;4957304;29;20132;-89
2023/09/05 08:30:24;;;;;;;7.05;4.88;;;19.90;99.90;;;;;;4958051;29;20074;-90
2023/09/05 08:32:55;;;;;;;5.72;5.22;;;20.00;99.90;;;;;;4957879;29;20492;-91
2023/09/05 08:35:21;;;;;;;9.38;5.75;;;20.00;99.90;;;;;;4956940;29;20159;-90
2023/09/05 08:37:46;;;;;;;6.00;5.40;;;20.10;99.90;;;;;;4957261;29;20528;-90
2023/09/05 08:40:13;;;;;;;6.72;5.13;;;20.20;99.90;;;;;;4957621;29;20488;-90
2023/09/05 08:42:39;;;;;;;5.70;5.20;;;20.30;99.90;;;;;;4956709;29;20028;-90
2023/09/05 08:45:11;;;;;;;7.88;4.95;;;20.20;99.90;;;;;;4963952;28;20111;-91
2023/09/05 08:47:37;;;;;;;7.90;5.05;;;20.20;99.90;;;;;;4964996;28;20400;-90
2023/09/05 08:50:04;;;;;;;5.57;5.07;;;20.30;99.90;;;;;;4959671;29;20038;-90
2023/09/05 08:52:36;;;;;;;5.90;5.05;;;20.30;99.90;;;;;;4958980;29;20106;-90
2023/09/05 08:55:02;;;;;;;5.20;4.70;;;20.40;99.90;;;;;;4957339;29;20201;-89
2023/09/05 08:57:29;;;;;;;5.90;5.28;;;20.50;99.90;;;;;;4957071;29;20125;-89
2023/09/05 08:59:55;;;;;;;5.53;4.78;;;20.70;99.90;;;;;;4957225;29;20027;-88
2023/09/05 09:02:21;;;;;;;5.10;4.63;;;20.60;99.90;;;;;;4956837;28;20031;-91
2023/09/05 09:04:56;;;;;;;6.75;5.40;;;20.60;99.90;;;;;;4957202;29;20463;-89
2023/09/05 09:07:29;;;;;;;5.95;4.97;;;20.70;99.90;;;;;;4957940;29;20050;-92
2023/09/05 09:09:55;;;;;;;5.90;5.30;;;20.70;99.90;;;;;;4956947;29;20483;-89
2023/09/05 09:12:32;;;;;;;8.25;5.20;;;20.80;99.90;;;;;;4957089;29;20027;-89
2023/09/05 09:15:11;;;;;;;7.20;5.78;;;20.80;99.90;;;;;;4956958;29;20023;-89
2023/09/05 09:17:39;;;;;;;5.85;5.25;;;20.80;99.90;;;;;;4956345;29;20035;-90
2023/09/05 09:20:05;;;;;;;9.65;5.70;;;20.90;99.90;;;;;;4956974;29;20106;-92
2023/09/05 09:22:31;;;;;;;9.10;5.57;;;20.90;99.90;;;;;;4956280;29;20032;-90
2023/09/05 09:24:57;;;;;;;5.47;4.97;;;21.00;99.90;;;;;;4956284;29;20027;-88
2023/09/05 09:27:23;;;;;;;6.05;5.45;;;21.40;99.90;;;;;;4965288;29;20035;-89
2023/09/05 09:29:55;;;;;;;5.30;4.85;;;21.00;99.90;;;;;;4962166;29;20043;-89
2023/09/05 09:32:22;;;;;;;7.35;5.07;;;21.10;99.90;;;;;;4956929;29;20038;-91
2023/09/05 09:34:49;;;;;;;5.90;4.70;;;21.40;99.90;;;;;;4957767;29;20107;-89
2023/09/05 09:37:34;;;;;;;5.55;3.90;;;21.20;99.90;;;;;;4956822;29;20074;-89
2023/09/05 09:40:00;;;;;;;7.78;4.60;;;21.30;99.90;;;;;;4956509;29;20027;-90
2023/09/05 09:42:27;;;;;;;7.70;4.85;;;21.30;99.90;;;;;;4979013;28;20080;-90
2023/09/05 09:44:53;;;;;;;5.03;4.63;;;21.40;99.90;;;;;;4965642;28;20038;-90
2023/09/05 09:47:19;;;;;;;7.65;5.70;;;21.40;99.90;;;;;;4964686;28;20023;-89
2023/09/05 09:49:50;;;;;;;4.13;3.75;;;21.50;99.90;;;;;;4972968;29;20079;-90
2023/09/05 09:52:20;;;;;;;5.40;4.22;;;21.60;99.90;;;;;;4961612;29;20027;-92
2023/09/05 09:54:47;;;;;;;5.43;4.93;;;21.50;99.90;;;;;;4955859;29;20038;-91
2023/09/05 09:57:33;;;;;;;6.65;4.00;;;21.60;99.90;;;;;;4957672;29;20024;-91
2023/09/05 10:00:15;;;;;;;5.68;4.18;;;21.60;99.90;;;;;;4956510;29;20039;-91
2023/09/05 10:02:43;;;;;;;5.88;4.53;;;21.70;99.90;;;;;;4957024;29;20126;-91
2023/09/05 10:05:09;;;;;;;6.72;3.80;;;21.70;99.90;;;;;;4956933;29;20051;-91
2023/09/05 10:07:35;;;;;;;7.10;4.10;;;21.80;99.90;;;;;;4955562;29;20126;-90
2023/09/05 10:10:02;;;;;;;5.90;4.22;;;21.90;99.90;;;;;;4956514;29;20066;-91
2023/09/05 10:12:27;;;;;;;5.68;4.47;;;21.90;99.90;;;;;;4956542;29;20031;-90
2023/09/05 10:14:55;;;;;;;3.95;3.63;;;22.00;99.90;;;;;;4954894;28;20023;-88
2023/09/05 10:17:22;;;;;;;5.30;4.47;;;22.10;99.90;;;;;;4956622;29;20079;-90
2023/09/05 10:19:50;;;;;;;8.43;4.75;;;22.10;99.90;;;;;;4956416;29;20031;-90
2023/09/05 10:22:16;;;;;;;6.93;4.53;;;22.00;99.90;;;;;;4955699;29;20031;-90
2023/09/05 10:24:43;;;;;;;5.82;4.28;;;22.10;99.90;;;;;;4955669;29;20114;-91
2023/09/05 10:27:10;;;;;;;4.75;4.28;;;22.20;99.90;;;;;;4956090;29;20035;-91
2023/09/05 10:29:43;;;;;;;4.60;4.20;;;22.30;99.90;;;;;;4954902;29;20057;-91
2023/09/05 10:32:19;;;;;;;11.25;4.20;;;22.30;99.90;;;;;;4956854;29;20038;-90
2023/09/05 10:34:48;;;;;;;7.32;4.05;;;22.40;99.90;;;;;;4955163;29;20102;-91
2023/09/05 10:37:26;;;;;;;6.90;4.45;;;22.40;99.90;;;;;;4955384;29;20031;-91
2023/09/05 10:40:02;;;;;;;5.93;4.22;;;22.50;99.90;;;;;;4955866;29;20047;-90
2023/09/05 10:42:32;;;;;;;4.80;4.22;;;22.60;99.90;;;;;;4955174;29;20031;-91
2023/09/05 10:45:19;;;;;;;4.93;4.43;;;22.60;99.90;;;;;;4956459;29;20471;-91
2023/09/05 10:47:44;;;;;;;14.57;4.55;;;22.70;99.90;;;;;;4958147;29;20075;-89
2023/09/05 10:50:12;;;;;;;7.10;4.22;;;22.70;99.90;;;;;;4965236;28;20177;-90
2023/09/05 10:52:38;;;;;;;4.68;4.18;;;22.80;99.90;;;;;;4972624;28;20039;-92
2023/09/05 10:55:29;;;;;;;8.23;5.22;;;22.80;99.90;;;;;;4961254;29;20086;-90
2023/09/05 10:57:56;;;;;;;6.13;4.28;;;22.90;99.90;;;;;;4954840;29;20039;-90
2023/09/05 11:00:26;;;;;;;5.07;4.53;;;22.90;99.90;;;;;;4955935;29;20031;-91
2023/09/05 11:02:54;;;;;;;4.75;4.07;;;22.90;99.90;;;;;;4955183;29;20071;-90
2023/09/05 11:05:20;;;;;;;7.40;4.05;;;23.00;99.90;;;;;;4955271;29;20031;-91
2023/09/05 11:07:50;;;;;;;8.02;3.63;;;23.10;99.90;;;;;;4955480;29;20032;-91
2023/09/05 11:10:29;;;;;;;6.68;4.35;;;23.20;99.90;;;;;;4955268;29;20134;-91
2023/09/05 11:12:56;;;;;;;6.13;3.63;;;23.20;99.90;;;;;;4955825;29;20063;-90
2023/09/05 11:15:32;;;;;;;21.27;3.83;;;23.20;99.90;;;;;;4955957;29;20025;-92
2023/09/05 11:18:05;;;;;;;6.20;4.07;;;23.50;99.90;;;;;;4955202;29;20045;-90
2023/09/05 11:20:48;;;;;;;5.18;4.10;;;23.40;99.90;;;;;;4955986;29;20102;-89
2023/09/05 11:23:20;;;;;;;5.50;4.10;;;23.50;99.90;;;;;;4955534;29;20031;-91
2023/09/05 11:25:54;;;;;;;5.15;4.03;;;23.60;99.90;;;;;;4954492;28;20042;-91
2023/09/05 11:28:24;;;;;;;6.57;3.58;;;23.60;99.90;;;;;;4955169;29;20141;-90
2023/09/05 11:30:55;;;;;;;5.93;3.10;;;23.60;99.90;;;;;;4954989;29;20019;-90
2023/09/05 11:33:20;;;;;;;5.85;3.03;;;23.70;99.90;;;;;;4954835;29;20554;-90
2023/09/05 11:35:48;;;;;;;4.45;3.05;;;23.80;99.90;;;;;;4954808;29;20066;-90
2023/09/05 11:38:15;;;;;;;5.38;3.08;;;24.00;99.90;;;;;;4954832;29;20036;-89
2023/09/05 11:40:49;;;;;;;6.65;4.35;;;24.00;99.90;;;;;;4955119;29;20054;-89
2023/09/05 11:43:14;;;;;;;6.50;2.72;;;24.10;99.90;;;;;;4955759;29;20027;-91
2023/09/05 11:45:43;;;;;;;3.60;3.30;;;24.10;99.90;;;;;;4954356;29;20027;-90
2023/09/05 11:48:14;;;;;;;4.35;2.72;;;24.20;99.90;;;;;;4955140;29;20047;-90
2023/09/05 11:50:41;;;;;;;6.03;2.85;;;24.30;99.90;;;;;;4955203;29;20027;-91
2023/09/05 11:53:11;;;;;;;8.05;3.55;;;24.50;99.90;;;;;;4963670;28;20011;-89
2023/09/05 11:55:38;;;;;;;4.18;3.58;;;24.50;99.90;;;;;;4971748;28;20032;-90
2023/09/05 11:58:05;;;;;;;5.50;3.55;;;24.60;99.90;;;;;;4959214;29;20050;-90
2023/09/05 12:00:35;;;;;;;3.75;3.28;;;24.60;99.90;;;;;;4954089;29;20031;-90
2023/09/05 12:03:01;;;;;;;4.85;3.00;;;24.70;99.90;;;;;;4937407;29;20197;-90
2023/09/05 12:05:27;;;;;;;5.25;3.60;;;24.80;99.90;;;;;;4954935;29;20075;-90
2023/09/05 12:07:53;;;;;;;4.15;3.33;;;24.90;99.90;;;;;;4954656;29;20031;-89
2023/09/05 12:10:20;;;;;;;9.60;3.45;;;24.90;99.90;;;;;;4955089;29;20506;-91
2023/09/05 12:12:57;;;;;;;6.63;3.35;;;25.00;99.90;;;;;;4954771;29;20114;-91
2023/09/05 12:15:37;;;;;;;6.05;2.90;;;25.10;99.90;;;;;;4955629;29;20041;-91
2023/09/05 12:18:06;;;;;;;7.22;3.38;;;25.10;99.90;;;;;;4955867;29;20027;-91
2023/09/05 12:20:33;;;;;;;3.63;2.72;;;25.20;99.90;;;;;;4960981;29;20454;-91
2023/09/05 12:23:00;;;;;;;8.50;3.03;;;25.30;99.90;;;;;;4954497;29;20130;-90
2023/09/05 12:25:28;;;;;;;4.68;3.30;;;25.30;99.90;;;;;;4954469;29;20034;-89
2023/09/05 12:27:55;;;;;;;13.50;3.25;;;25.40;99.90;;;;;;4953923;29;20044;-89
2023/09/05 12:30:25;;;;;;;5.07;2.50;;;25.40;99.90;;;;;;4954604;29;20052;-91
2023/09/05 12:32:52;;;;;;;5.15;2.95;;;25.50;99.90;;;;;;4954687;29;20027;-91
2023/09/05 12:35:17;;;;;;;6.18;2.88;;;25.50;99.90;;;;;;4954135;29;20396;-90
2023/09/05 12:37:43;;;;;;;5.20;2.78;;;25.60;99.90;;;;;;4956241;28;20023;-90
2023/09/05 12:40:09;;;;;;;4.50;2.35;;;25.60;99.90;;;;;;4958649;29;20055;-91
2023/09/05 12:42:35;;;;;;;4.40;2.65;;;25.70;99.90;;;;;;4958059;29;20090;-91
2023/09/05 12:45:00;;;;;;;3.75;2.50;;;25.70;99.90;;;;;;4958094;29;20369;-91
2023/09/05 12:47:26;;;;;;;3.50;2.33;;;25.80;99.90;;;;;;4958256;29;20085;-91
2023/09/05 12:49:53;;;;;;;4.03;2.47;;;25.90;99.90;;;;;;4957298;29;20023;-90